Time;durP1;ratioP1;P1;durP2;ratioP2;P2;SDS_P1;SDS_P2;PMS_P1;PMS_P2;Temp;Humidity;BMP_temperature;BMP_pressure;BME280_temperature;BME280_humidity;BME280_pressure;Samples;Min_cycle;Max_cycle;Signal;HPM_P1;HPM_P2
2022/07/13 00:01:03;;;;;;;1.75;0.70;;;22.70;70.40;;;;;;5034171;28;20494;-62
2022/07/13 00:03:28;;;;;;;1.90;0.70;;;22.70;70.40;;;;;;5036189;28;20389;-63
2022/07/13 00:05:54;;;;;;;2.50;1.05;;;22.70;70.40;;;;;;5035808;28;20110;-63
2022/07/13 00:08:19;;;;;;;1.88;0.80;;;22.80;70.50;;;;;;5034385;28;20509;-62
2022/07/13 00:10:45;;;;;;;1.10;0.80;;;22.80;70.50;;;;;;5035946;28;20037;-63
2022/07/13 00:13:10;;;;;;;1.85;0.80;;;22.70;70.40;;;;;;5035698;28;20561;-63
2022/07/13 00:15:36;;;;;;;3.20;0.95;;;22.70;70.40;;;;;;5035011;28;20511;-62
2022/07/13 00:18:01;;;;;;;1.80;0.77;;;22.70;70.40;;;;;;5035936;28;20444;-62
2022/07/13 00:20:27;;;;;;;2.83;1.17;;;22.70;70.40;;;;;;5035671;28;20052;-62
2022/07/13 00:22:54;;;;;;;1.67;0.93;;;22.70;70.40;;;;;;5035028;28;20417;-62
2022/07/13 00:25:20;;;;;;;2.05;0.85;;;22.70;70.50;;;;;;5036041;28;20175;-62
2022/07/13 00:27:46;;;;;;;1.33;0.63;;;22.70;70.40;;;;;;5033970;28;20077;-64
2022/07/13 00:30:11;;;;;;;2.53;0.90;;;22.70;70.40;;;;;;5035108;28;20050;-62
2022/07/13 00:32:37;;;;;;;2.22;1.00;;;22.70;70.40;;;;;;5034414;28;20045;-62
2022/07/13 00:35:03;;;;;;;1.35;0.63;;;22.70;70.40;;;;;;5035614;28;20042;-63
2022/07/13 00:37:28;;;;;;;2.92;0.75;;;22.70;70.40;;;;;;5034816;28;20444;-62
2022/07/13 00:39:54;;;;;;;1.52;0.70;;;22.70;70.40;;;;;;5035176;28;20048;-62
2022/07/13 00:42:19;;;;;;;2.03;0.70;;;22.70;70.40;;;;;;5035525;28;20044;-63
2022/07/13 00:44:45;;;;;;;2.10;0.80;;;22.70;70.50;;;;;;5033036;28;20559;-63
2022/07/13 00:47:10;;;;;;;1.13;0.57;;;22.70;70.40;;;;;;5035610;28;20075;-63
2022/07/13 00:49:36;;;;;;;1.65;0.77;;;22.70;70.50;;;;;;5035459;28;20040;-63
2022/07/13 00:52:02;;;;;;;1.70;1.00;;;22.70;70.40;;;;;;5033470;28;20553;-63
2022/07/13 00:54:29;;;;;;;2.08;0.77;;;22.70;70.50;;;;;;5035366;28;20049;-63
2022/07/13 00:56:55;;;;;;;1.15;0.73;;;22.70;70.40;;;;;;5033880;28;20393;-62
2022/07/13 00:59:20;;;;;;;2.35;0.70;;;22.70;70.40;;;;;;5034104;28;20114;-63
2022/07/13 01:01:47;;;;;;;1.55;0.93;;;22.70;70.40;;;;;;5033231;28;20439;-63
2022/07/13 01:04:12;;;;;;;2.45;0.98;;;22.70;70.40;;;;;;5034250;28;20053;-62
2022/07/13 01:06:38;;;;;;;1.80;0.80;;;22.70;70.50;;;;;;5035029;28;20045;-63
2022/07/13 01:09:03;;;;;;;1.50;0.73;;;22.70;70.50;;;;;;5034863;28;20103;-63
2022/07/13 01:11:31;;;;;;;2.42;0.90;;;22.70;70.50;;;;;;5034543;28;20128;-62
2022/07/13 01:13:57;;;;;;;2.13;0.85;;;22.70;70.40;;;;;;5033389;28;20053;-63
2022/07/13 01:16:22;;;;;;;1.05;0.68;;;22.70;70.40;;;;;;5034662;28;20044;-62
2022/07/13 01:18:48;;;;;;;1.83;0.68;;;22.70;70.50;;;;;;5032427;28;20038;-62
2022/07/13 01:21:13;;;;;;;2.72;0.93;;;22.70;70.40;;;;;;5017278;28;20045;-63
2022/07/13 01:23:39;;;;;;;2.80;1.02;;;22.70;70.40;;;;;;5034932;28;20389;-63
2022/07/13 01:26:07;;;;;;;1.50;0.80;;;22.70;70.50;;;;;;5032651;28;20053;-63
2022/07/13 01:28:32;;;;;;;1.58;0.80;;;22.70;70.50;;;;;;5033212;28;20057;-63
2022/07/13 01:30:58;;;;;;;1.73;0.82;;;22.70;70.40;;;;;;5034360;28;20050;-63
2022/07/13 01:33:23;;;;;;;1.85;0.90;;;22.70;70.50;;;;;;5033862;28;20045;-62
2022/07/13 01:35:49;;;;;;;1.25;0.80;;;22.70;70.40;;;;;;5034543;28;20048;-63
2022/07/13 01:38:14;;;;;;;1.25;0.80;;;22.70;70.40;;;;;;5034865;28;20048;-63
2022/07/13 01:40:43;;;;;;;0.95;0.65;;;22.70;70.40;;;;;;5032505;28;20508;-62
2022/07/13 01:43:08;;;;;;;1.73;0.80;;;22.70;70.40;;;;;;5032924;28;20068;-63
2022/07/13 01:45:34;;;;;;;1.35;0.73;;;22.70;70.40;;;;;;5034539;28;20205;-62
2022/07/13 01:47:59;;;;;;;2.15;0.70;;;22.70;70.40;;;;;;5033221;28;20156;-63
2022/07/13 01:50:25;;;;;;;1.35;0.80;;;22.70;70.40;;;;;;5034461;28;20052;-62
2022/07/13 01:52:51;;;;;;;2.95;0.90;;;22.70;70.40;;;;;;5033848;28;20128;-63
2022/07/13 01:55:16;;;;;;;1.73;0.90;;;22.70;70.40;;;;;;5033512;28;20042;-63
2022/07/13 01:57:42;;;;;;;2.05;0.93;;;22.70;70.40;;;;;;5033607;28;20073;-63
2022/07/13 02:00:11;;;;;;;1.20;0.75;;;22.70;70.40;;;;;;5033301;28;20041;-63
2022/07/13 02:02:37;;;;;;;2.22;1.00;;;22.60;70.30;;;;;;5033829;28;20738;-63
2022/07/13 02:05:03;;;;;;;1.50;0.90;;;22.70;70.40;;;;;;5033301;28;20132;-63
2022/07/13 02:07:28;;;;;;;1.75;0.82;;;22.70;70.40;;;;;;5032903;28;20064;-63
2022/07/13 02:09:54;;;;;;;1.35;0.80;;;22.60;70.30;;;;;;5033994;28;20135;-63
2022/07/13 02:12:20;;;;;;;1.63;0.80;;;22.70;70.40;;;;;;5033995;28;20041;-63
2022/07/13 02:14:46;;;;;;;1.60;0.90;;;22.60;70.30;;;;;;5033022;28;20037;-63
2022/07/13 02:17:11;;;;;;;2.78;0.80;;;22.70;70.40;;;;;;5034130;28;20046;-63
2022/07/13 02:19:37;;;;;;;1.17;0.68;;;22.60;70.30;;;;;;5033802;28;20040;-63
2022/07/13 02:22:03;;;;;;;1.80;0.70;;;22.70;70.40;;;;;;5032706;28;20045;-62
2022/07/13 02:24:28;;;;;;;1.83;0.85;;;22.60;70.30;;;;;;5033628;28;20060;-62
2022/07/13 02:26:54;;;;;;;2.00;1.00;;;22.60;70.30;;;;;;5033020;28;20041;-63
2022/07/13 02:29:19;;;;;;;1.20;0.80;;;22.60;70.30;;;;;;5032549;28;20144;-63
2022/07/13 02:31:45;;;;;;;2.65;0.82;;;22.70;70.40;;;;;;5033098;28;20156;-62
2022/07/13 02:34:10;;;;;;;2.40;0.93;;;22.60;70.90;;;;;;5033420;28;20041;-62
2022/07/13 02:36:36;;;;;;;1.27;0.85;;;22.60;70.30;;;;;;5031239;28;20056;-62
2022/07/13 02:39:01;;;;;;;1.55;0.80;;;22.60;70.30;;;;;;5033195;28;20041;-63
2022/07/13 02:41:27;;;;;;;1.80;1.02;;;22.60;70.30;;;;;;5033702;28;20095;-62
2022/07/13 02:43:52;;;;;;;1.63;0.73;;;22.70;70.30;;;;;;5032338;28;20038;-62
2022/07/13 02:46:18;;;;;;;1.88;0.80;;;22.60;70.30;;;;;;5032953;28;20049;-63
2022/07/13 02:48:43;;;;;;;2.17;0.88;;;22.60;70.30;;;;;;5031624;28;20042;-63
2022/07/13 02:51:09;;;;;;;1.48;0.82;;;22.60;70.30;;;;;;5032525;28;20085;-63
2022/07/13 02:53:34;;;;;;;2.08;1.02;;;22.60;70.30;;;;;;5031688;28;20128;-63
2022/07/13 02:56:00;;;;;;;2.60;0.98;;;22.60;70.30;;;;;;5032605;28;20095;-63
2022/07/13 02:58:26;;;;;;;2.10;1.00;;;22.60;70.30;;;;;;5031888;28;20037;-63
2022/07/13 03:00:51;;;;;;;3.88;1.20;;;22.60;70.30;;;;;;5032456;28;20048;-63
2022/07/13 03:03:17;;;;;;;1.63;0.90;;;22.60;70.30;;;;;;5032970;28;20041;-63
2022/07/13 03:05:42;;;;;;;1.13;0.80;;;22.60;70.30;;;;;;5032391;28;20546;-63
2022/07/13 03:08:08;;;;;;;1.45;0.90;;;22.60;70.30;;;;;;5033053;28;20084;-63
2022/07/13 03:10:33;;;;;;;2.28;0.70;;;22.60;70.30;;;;;;5032139;28;20053;-63
2022/07/13 03:12:59;;;;;;;2.58;0.98;;;22.60;70.20;;;;;;5032291;28;20049;-63
2022/07/13 03:15:25;;;;;;;2.70;1.05;;;22.60;70.30;;;;;;5030770;28;20045;-62
2022/07/13 03:17:50;;;;;;;2.15;0.90;;;22.60;70.20;;;;;;5031663;28;20142;-62
2022/07/13 03:20:16;;;;;;;2.08;0.90;;;22.60;70.20;;;;;;5032724;28;20037;-62
2022/07/13 03:22:41;;;;;;;1.85;0.80;;;22.60;70.20;;;;;;5032519;28;20128;-62
2022/07/13 03:25:07;;;;;;;1.45;1.00;;;22.60;70.20;;;;;;5032013;28;20049;-62
2022/07/13 03:27:33;;;;;;;1.65;0.90;;;22.60;70.20;;;;;;5031559;28;20126;-63
2022/07/13 03:29:58;;;;;;;1.45;0.85;;;22.60;70.20;;;;;;5030676;28;20053;-63
2022/07/13 03:32:24;;;;;;;2.53;0.90;;;22.60;70.20;;;;;;5032103;28;20458;-63
2022/07/13 03:34:49;;;;;;;1.30;0.88;;;22.60;70.20;;;;;;5032382;28;20159;-62
2022/07/13 03:37:15;;;;;;;2.13;1.40;;;22.60;70.20;;;;;;5032739;28;20439;-63
2022/07/13 03:39:41;;;;;;;2.20;0.90;;;22.60;70.20;;;;;;5031350;28;20042;-64
2022/07/13 03:42:06;;;;;;;1.30;0.73;;;22.60;70.20;;;;;;5032544;28;20123;-62
2022/07/13 03:44:32;;;;;;;1.38;0.93;;;22.60;70.20;;;;;;5032444;28;20044;-62
2022/07/13 03:46:58;;;;;;;2.10;0.98;;;22.60;70.20;;;;;;5031413;28;20481;-63
2022/07/13 03:49:24;;;;;;;1.88;1.00;;;22.60;70.20;;;;;;5032259;28;20400;-63
2022/07/13 03:51:50;;;;;;;2.65;1.00;;;22.60;70.20;;;;;;5032307;28;20046;-63
2022/07/13 03:54:15;;;;;;;1.13;0.90;;;22.60;70.20;;;;;;5031628;28;20405;-63
2022/07/13 03:56:41;;;;;;;1.88;1.00;;;22.60;70.20;;;;;;5031866;28;20037;-63
2022/07/13 03:59:06;;;;;;;1.42;1.20;;;22.60;70.20;;;;;;5031970;28;20053;-62
2022/07/13 04:01:32;;;;;;;2.33;0.93;;;22.60;70.20;;;;;;5031244;28;20520;-63
2022/07/13 04:03:58;;;;;;;1.52;1.10;;;22.60;70.20;;;;;;5031982;28;20038;-63
2022/07/13 04:06:24;;;;;;;1.35;1.15;;;22.60;70.20;;;;;;5031665;28;20452;-63
2022/07/13 04:08:50;;;;;;;1.73;1.00;;;22.60;70.20;;;;;;5030945;28;20041;-63
2022/07/13 04:11:16;;;;;;;1.73;0.95;;;22.60;70.20;;;;;;5032220;28;20042;-63
2022/07/13 04:13:42;;;;;;;1.85;0.90;;;22.60;70.20;;;;;;5031034;28;20043;-63
2022/07/13 04:16:07;;;;;;;1.38;1.00;;;22.60;70.20;;;;;;5032098;28;20046;-63
2022/07/13 04:18:33;;;;;;;1.40;0.85;;;22.60;70.20;;;;;;5032203;28;20056;-63
2022/07/13 04:20:58;;;;;;;1.95;0.80;;;22.60;70.20;;;;;;5031270;28;20359;-63
2022/07/13 04:23:24;;;;;;;1.60;0.90;;;22.60;70.20;;;;;;5031796;28;20052;-63
2022/07/13 04:25:49;;;;;;;2.08;1.00;;;22.60;70.20;;;;;;5032068;28;20139;-63
2022/07/13 04:28:15;;;;;;;2.00;0.90;;;22.60;70.20;;;;;;5034760;28;20081;-63
2022/07/13 04:30:40;;;;;;;1.70;1.20;;;22.50;70.20;;;;;;5035151;28;20052;-63
2022/07/13 04:33:06;;;;;;;1.50;0.88;;;22.60;70.20;;;;;;5035841;28;20038;-63
2022/07/13 04:35:32;;;;;;;1.40;0.98;;;22.60;70.20;;;;;;5034864;28;20045;-64
2022/07/13 04:37:57;;;;;;;2.10;1.10;;;22.60;70.20;;;;;;5035308;28;20042;-63
2022/07/13 04:40:23;;;;;;;1.63;0.90;;;22.50;70.10;;;;;;5035625;28;20045;-62
2022/07/13 04:42:48;;;;;;;1.38;0.90;;;22.60;70.20;;;;;;5034510;28;20038;-63
2022/07/13 04:45:18;;;;;;;1.85;0.85;;;22.50;70.10;;;;;;5035788;28;20456;-62
2022/07/13 04:47:44;;;;;;;1.55;1.00;;;22.60;70.20;;;;;;5035135;28;20081;-63
2022/07/13 04:50:09;;;;;;;2.00;1.17;;;22.60;70.20;;;;;;5034626;28;20076;-62
2022/07/13 04:52:35;;;;;;;1.58;0.90;;;22.50;70.20;;;;;;5035546;28;20497;-63
2022/07/13 04:55:00;;;;;;;1.33;1.00;;;22.50;70.20;;;;;;5034917;28;20045;-63
2022/07/13 04:57:26;;;;;;;1.20;0.80;;;22.50;70.20;;;;;;5034570;28;20481;-62
2022/07/13 04:59:51;;;;;;;1.73;0.90;;;22.60;70.20;;;;;;5034720;28;20033;-63
2022/07/13 05:02:17;;;;;;;2.50;1.05;;;22.50;70.10;;;;;;5034684;28;20041;-62
2022/07/13 05:04:42;;;;;;;1.50;0.93;;;22.50;70.20;;;;;;5034290;28;20478;-63
2022/07/13 05:07:08;;;;;;;2.28;0.95;;;22.50;70.20;;;;;;5034864;28;20420;-63
2022/07/13 05:09:34;;;;;;;2.05;0.98;;;22.50;70.20;;;;;;5034796;28;20469;-62
2022/07/13 05:11:59;;;;;;;1.40;0.82;;;22.60;70.20;;;;;;5033658;28;20132;-63
2022/07/13 05:14:25;;;;;;;1.52;1.00;;;22.50;70.10;;;;;;5034627;28;20045;-62
2022/07/13 05:16:50;;;;;;;1.77;1.10;;;22.50;70.10;;;;;;5034731;28;20038;-63
2022/07/13 05:19:16;;;;;;;1.42;0.75;;;22.60;70.20;;;;;;5034210;28;20041;-62
2022/07/13 05:21:42;;;;;;;1.80;1.17;;;22.60;70.20;;;;;;5034744;28;20045;-62
2022/07/13 05:24:07;;;;;;;1.70;0.90;;;22.60;70.20;;;;;;5033681;28;20046;-62
2022/07/13 05:26:33;;;;;;;1.88;1.02;;;22.60;70.20;;;;;;5034878;28;20045;-63
2022/07/13 05:28:58;;;;;;;1.80;0.90;;;22.60;70.20;;;;;;5033947;28;20077;-63
2022/07/13 05:31:24;;;;;;;1.73;0.90;;;22.60;70.20;;;;;;5034052;28;20163;-62
2022/07/13 05:33:50;;;;;;;1.55;0.90;;;22.50;70.10;;;;;;5033141;28;20071;-63
2022/07/13 05:36:15;;;;;;;1.25;1.05;;;22.50;70.20;;;;;;5034187;28;20041;-62
2022/07/13 05:38:41;;;;;;;1.63;1.00;;;22.50;70.20;;;;;;5064801;28;20048;-63
2022/07/13 05:41:07;;;;;;;1.80;1.08;;;22.60;70.30;;;;;;5033398;28;20073;-63
2022/07/13 05:43:32;;;;;;;1.25;0.80;;;22.50;70.20;;;;;;5034402;28;20099;-63
2022/07/13 05:45:58;;;;;;;2.35;1.15;;;22.50;70.20;;;;;;5033328;28;20056;-63
2022/07/13 05:48:23;;;;;;;1.92;1.05;;;22.60;70.30;;;;;;5034704;28;20044;-63
2022/07/13 05:50:51;;;;;;;1.35;0.90;;;22.50;70.30;;;;;;5033885;28;20449;-62
2022/07/13 05:53:18;;;;;;;1.77;1.05;;;22.60;70.30;;;;;;5033318;28;20045;-63
2022/07/13 05:55:44;;;;;;;2.03;1.15;;;22.60;70.30;;;;;;5033875;28;20041;-63
2022/07/13 05:58:09;;;;;;;1.30;0.93;;;22.50;70.30;;;;;;5034358;28;20099;-62
2022/07/13 06:00:35;;;;;;;1.60;0.90;;;22.50;70.30;;;;;;5033552;28;20049;-62
2022/07/13 06:03:00;;;;;;;1.67;1.10;;;22.50;70.30;;;;;;5034011;28;20455;-63
2022/07/13 06:05:26;;;;;;;1.58;1.00;;;22.60;70.30;;;;;;5034021;28;20447;-63
2022/07/13 06:07:51;;;;;;;1.73;1.25;;;22.60;70.30;;;;;;5032561;28;20088;-63
2022/07/13 06:10:17;;;;;;;1.60;1.00;;;22.60;70.30;;;;;;5033961;28;20049;-63
2022/07/13 06:12:42;;;;;;;1.95;0.95;;;22.60;70.40;;;;;;5033704;28;20041;-63
2022/07/13 06:15:08;;;;;;;2.28;1.17;;;22.60;70.30;;;;;;5033263;28;20041;-64
2022/07/13 06:17:34;;;;;;;1.45;0.88;;;22.60;70.30;;;;;;5033537;28;20042;-63
2022/07/13 06:19:59;;;;;;;1.30;1.00;;;22.60;70.30;;;;;;5033755;28;20200;-63
2022/07/13 06:22:25;;;;;;;3.72;1.10;;;22.60;70.30;;;;;;5032910;28;20045;-64
2022/07/13 06:24:50;;;;;;;2.08;1.20;;;22.60;70.30;;;;;;5033344;28;20045;-63
2022/07/13 06:27:16;;;;;;;4.63;1.15;;;22.60;70.50;;;;;;5033178;28;20136;-63
2022/07/13 06:29:42;;;;;;;4.82;1.20;;;22.70;70.60;;;;;;5032793;28;20104;-63
2022/07/13 06:32:08;;;;;;;1.60;0.93;;;22.70;70.60;;;;;;5065462;28;20056;-63
2022/07/13 06:34:33;;;;;;;2.83;1.15;;;22.70;70.50;;;;;;5032985;28;20041;-63
2022/07/13 06:36:59;;;;;;;3.85;1.00;;;22.70;70.60;;;;;;5033339;28;20037;-63
2022/07/13 06:39:24;;;;;;;1.92;1.17;;;22.70;70.50;;;;;;5033131;28;20042;-63
2022/07/13 06:41:50;;;;;;;3.25;1.30;;;22.70;70.40;;;;;;5032473;28;20045;-63
2022/07/13 06:44:16;;;;;;;2.40;1.17;;;22.70;70.30;;;;;;5033364;28;20551;-64
2022/07/13 06:46:41;;;;;;;3.17;1.20;;;22.70;70.30;;;;;;5032910;28;20041;-62
2022/07/13 06:49:07;;;;;;;2.10;1.25;;;22.80;70.50;;;;;;5032555;28;20048;-64
2022/07/13 06:51:32;;;;;;;3.80;1.33;;;22.70;70.30;;;;;;5032323;28;20095;-62
2022/07/13 06:53:58;;;;;;;3.65;1.48;;;22.80;70.40;;;;;;5032071;28;20442;-62
2022/07/13 06:56:24;;;;;;;1.90;1.08;;;22.80;70.50;;;;;;5032030;28;20061;-63
2022/07/13 06:58:49;;;;;;;3.22;1.00;;;22.80;70.50;;;;;;5031799;28;20076;-63
2022/07/13 07:01:15;;;;;;;1.70;1.02;;;22.80;70.50;;;;;;5031966;28;20223;-62
2022/07/13 07:03:41;;;;;;;3.40;1.20;;;22.80;70.60;;;;;;5030754;28;20140;-63
2022/07/13 07:06:07;;;;;;;4.47;1.40;;;22.80;70.60;;;;;;5031651;28;20041;-63
2022/07/13 07:08:34;;;;;;;3.85;1.60;;;22.80;70.60;;;;;;5031199;28;20409;-63
2022/07/13 07:10:59;;;;;;;4.38;1.40;;;22.80;70.70;;;;;;5031748;28;20065;-63
2022/07/13 07:13:25;;;;;;;4.43;1.50;;;22.90;70.70;;;;;;5032860;28;20049;-63
2022/07/13 07:15:52;;;;;;;3.67;1.42;;;22.90;70.80;;;;;;5032601;28;20466;-63
2022/07/13 07:18:17;;;;;;;5.00;1.58;;;22.90;70.80;;;;;;5032206;28;20045;-62
2022/07/13 07:20:43;;;;;;;3.63;1.33;;;22.90;70.90;;;;;;5032414;28;20049;-64
2022/07/13 07:23:08;;;;;;;2.67;1.27;;;22.90;70.90;;;;;;5032367;28;20056;-63
2022/07/13 07:25:34;;;;;;;2.78;1.35;;;23.00;70.90;;;;;;5031498;28;20128;-63
2022/07/13 07:28:00;;;;;;;4.80;1.70;;;23.00;71.00;;;;;;5031973;28;20135;-64
2022/07/13 07:30:26;;;;;;;1.92;1.23;;;23.00;70.90;;;;;;5032766;28;20528;-64
2022/07/13 07:32:51;;;;;;;3.88;1.58;;;23.00;70.80;;;;;;5031374;28;20042;-64
2022/07/13 07:35:17;;;;;;;4.10;1.60;;;23.00;70.80;;;;;;5032755;28;20124;-63
2022/07/13 07:37:43;;;;;;;5.72;1.67;;;23.10;70.90;;;;;;5031240;28;20041;-64
2022/07/13 07:40:10;;;;;;;1.73;1.27;;;23.10;70.80;;;;;;5032463;28;20096;-64
2022/07/13 07:42:36;;;;;;;4.00;1.45;;;23.10;70.80;;;;;;5032354;28;20378;-63
2022/07/13 07:45:03;;;;;;;2.63;1.40;;;23.20;70.80;;;;;;5031319;28;20600;-62
2022/07/13 07:47:29;;;;;;;2.85;1.55;;;23.10;70.70;;;;;;5031923;28;20489;-63
2022/07/13 07:49:54;;;;;;;5.18;1.38;;;23.20;70.60;;;;;;5031545;28;20045;-63
2022/07/13 07:52:20;;;;;;;3.90;1.60;;;23.20;70.50;;;;;;5030864;28;20056;-64
2022/07/13 07:54:47;;;;;;;2.50;1.50;;;23.20;70.50;;;;;;5029963;28;20492;-64
2022/07/13 07:57:12;;;;;;;3.38;1.30;;;23.20;70.40;;;;;;5032149;28;20041;-61
2022/07/13 07:59:38;;;;;;;5.28;1.63;;;23.10;70.40;;;;;;5031394;28;20060;-61
2022/07/13 08:02:04;;;;;;;3.08;1.45;;;23.20;70.50;;;;;;5034026;28;20107;-62
2022/07/13 08:04:29;;;;;;;3.28;1.40;;;23.20;70.60;;;;;;5037157;28;20046;-64
2022/07/13 08:06:55;;;;;;;2.97;1.50;;;23.20;70.70;;;;;;5034838;28;20131;-61
2022/07/13 08:09:20;;;;;;;2.97;1.60;;;23.20;70.70;;;;;;5036106;28;20041;-62
2022/07/13 08:11:46;;;;;;;2.65;1.55;;;23.20;70.70;;;;;;5035803;28;20041;-61
2022/07/13 08:14:11;;;;;;;2.95;1.73;;;23.20;70.70;;;;;;5033888;28;20135;-61
2022/07/13 08:16:37;;;;;;;5.07;1.45;;;23.20;70.70;;;;;;5036049;28;20045;-61
2022/07/13 08:19:03;;;;;;;2.45;1.52;;;23.20;70.80;;;;;;5035495;28;20037;-62
2022/07/13 08:21:28;;;;;;;3.67;1.70;;;23.20;70.80;;;;;;5034921;28;20055;-62
2022/07/13 08:23:54;;;;;;;2.95;1.60;;;23.20;70.90;;;;;;5035425;28;20092;-62
2022/07/13 08:26:24;;;;;;;3.35;1.70;;;23.20;71.00;;;;;;5034594;28;20128;-62
2022/07/13 08:28:51;;;;;;;2.88;1.80;;;23.20;71.00;;;;;;5033374;28;20513;-62
2022/07/13 08:31:17;;;;;;;2.70;1.50;;;23.30;71.10;;;;;;5035831;28;20088;-63
2022/07/13 08:39:11;;;;;;;2.75;1.70;;;23.30;71.10;;;;;;5034184;28;20124;-63
2022/07/13 08:41:37;;;;;;;2.90;1.60;;;23.30;71.00;;;;;;5034524;28;20044;-63
2022/07/13 08:44:03;;;;;;;4.60;1.60;;;23.30;71.00;;;;;;5034940;28;20168;-63
2022/07/13 08:46:29;;;;;;;5.55;1.70;;;23.40;71.00;;;;;;5035517;28;20080;-63
2022/07/13 08:48:55;;;;;;;4.80;1.83;;;23.40;70.90;;;;;;5034357;28;20437;-64
2022/07/13 08:51:21;;;;;;;4.45;1.80;;;23.40;70.80;;;;;;5035099;28;20048;-64
2022/07/13 08:53:48;;;;;;;3.00;1.80;;;23.40;71.00;;;;;;5034700;28;20041;-64
2022/07/13 08:56:14;;;;;;;3.50;1.58;;;23.40;70.70;;;;;;5034603;28;20116;-63
2022/07/13 08:58:39;;;;;;;2.67;1.80;;;23.40;70.60;;;;;;5034964;28;20124;-64
2022/07/13 09:01:07;;;;;;;4.63;2.20;;;23.40;70.60;;;;;;5033727;28;20128;-63
2022/07/13 09:03:36;;;;;;;2.67;1.73;;;23.50;70.70;;;;;;5032755;28;20060;-61
2022/07/13 09:06:02;;;;;;;4.88;2.10;;;23.50;70.70;;;;;;5035079;28;20053;-61
2022/07/13 09:08:27;;;;;;;4.00;2.28;;;23.50;70.70;;;;;;5035159;28;20113;-61
2022/07/13 09:10:57;;;;;;;3.75;2.10;;;23.50;70.70;;;;;;5033056;28;20041;-62
2022/07/13 09:13:39;;;;;;;5.55;2.22;;;23.50;70.80;;;;;;5032562;28;20103;-62
2022/07/13 09:16:15;;;;;;;3.70;2.20;;;23.50;70.70;;;;;;5034121;28;20124;-63
2022/07/13 09:18:41;;;;;;;4.72;2.00;;;23.50;70.80;;;;;;5033587;28;20049;-62
2022/07/13 09:21:08;;;;;;;6.65;2.63;;;23.50;70.70;;;;;;5033487;28;20580;-62
2022/07/13 09:23:33;;;;;;;5.65;2.35;;;23.50;70.70;;;;;;5033672;28;20124;-64
2022/07/13 09:25:59;;;;;;;5.03;2.60;;;23.50;70.70;;;;;;5033645;28;20207;-63
2022/07/13 09:28:24;;;;;;;6.07;2.92;;;23.50;70.70;;;;;;5032574;28;20085;-62
2022/07/13 09:30:50;;;;;;;5.03;2.63;;;23.60;70.70;;;;;;5031439;28;20042;-62
2022/07/13 09:33:30;;;;;;;7.55;3.25;;;23.50;70.60;;;;;;5031891;28;20440;-62
2022/07/13 09:35:55;;;;;;;6.85;2.70;;;23.60;70.60;;;;;;5032319;28;20049;-62
2022/07/13 09:38:31;;;;;;;5.22;2.78;;;23.60;70.60;;;;;;5033342;28;20053;-64
2022/07/13 09:40:56;;;;;;;7.60;3.17;;;23.60;70.60;;;;;;5033452;28;20147;-63
2022/07/13 09:46:10;;;;;;;5.57;2.75;;;23.50;70.60;;;;;;5033585;28;20139;-63
2022/07/13 09:48:39;;;;;;;5.20;2.67;;;23.60;70.60;;;;;;5033693;28;20041;-62
2022/07/13 09:51:05;;;;;;;4.80;2.92;;;23.60;70.60;;;;;;5033779;28;20378;-63
2022/07/13 09:53:34;;;;;;;6.65;2.70;;;23.50;70.50;;;;;;5032244;28;20108;-62
2022/07/13 09:56:01;;;;;;;6.13;3.47;;;23.60;70.50;;;;;;5033773;28;20064;-62
2022/07/13 09:58:31;;;;;;;7.43;3.60;;;23.60;70.40;;;;;;5032895;28;20547;-62
2022/07/13 10:00:58;;;;;;;5.88;3.25;;;23.60;70.50;;;;;;5033905;28;20068;-63
2022/07/13 10:03:24;;;;;;;4.32;2.70;;;23.60;70.60;;;;;;5033842;28;20049;-63
2022/07/13 10:05:54;;;;;;;4.80;3.08;;;23.60;70.50;;;;;;5032396;28;20485;-62
2022/07/13 10:08:20;;;;;;;6.43;2.97;;;23.60;70.50;;;;;;5032116;28;20519;-65
2022/07/13 10:10:46;;;;;;;5.00;3.05;;;23.60;70.40;;;;;;5033371;28;20037;-63
2022/07/13 10:13:12;;;;;;;8.15;3.25;;;23.60;70.30;;;;;;5032881;28;20046;-63
2022/07/13 10:15:38;;;;;;;6.05;2.92;;;23.60;70.30;;;;;;5033896;28;20076;-63
2022/07/13 10:18:03;;;;;;;6.35;3.50;;;23.60;70.30;;;;;;5033207;28;20077;-64
2022/07/13 10:20:29;;;;;;;7.80;3.35;;;23.70;70.30;;;;;;5032634;28;20045;-62
2022/07/13 10:22:55;;;;;;;5.88;3.60;;;23.70;70.30;;;;;;5032349;28;20041;-62
2022/07/13 10:25:23;;;;;;;5.35;3.10;;;23.70;70.20;;;;;;5033325;28;20053;-63
2022/07/13 10:28:05;;;;;;;5.18;3.15;;;23.70;70.20;;;;;;5031386;28;20099;-63
2022/07/13 10:30:30;;;;;;;6.75;3.40;;;23.70;70.00;;;;;;5033742;28;20046;-63
2022/07/13 10:33:17;;;;;;;6.78;3.25;;;23.70;70.00;;;;;;5031995;28;20124;-64
2022/07/13 10:35:50;;;;;;;5.37;3.10;;;23.70;70.10;;;;;;5015907;28;20099;-64
2022/07/13 10:38:20;;;;;;;4.95;3.58;;;23.70;70.10;;;;;;5033123;28;20084;-63
2022/07/13 10:40:46;;;;;;;6.57;3.33;;;23.70;70.00;;;;;;5032190;28;20045;-62
2022/07/13 10:43:15;;;;;;;4.70;3.25;;;23.70;69.90;;;;;;5032268;28;20382;-61
2022/07/13 10:45:43;;;;;;;5.82;3.10;;;23.70;69.90;;;;;;5032116;28;20076;-62
2022/07/13 10:48:24;;;;;;;5.65;3.20;;;23.70;69.80;;;;;;5032031;28;20037;-63
2022/07/13 10:50:54;;;;;;;5.05;3.42;;;23.70;69.70;;;;;;5029272;28;20046;-65
2022/07/13 10:53:21;;;;;;;4.95;3.33;;;23.70;69.80;;;;;;5032881;28;20473;-63
2022/07/13 10:55:50;;;;;;;5.72;3.58;;;23.70;69.60;;;;;;5033610;28;20132;-62
2022/07/13 10:58:43;;;;;;;6.25;3.60;;;23.70;69.60;;;;;;5032410;28;20489;-63
2022/07/13 11:01:37;;;;;;;6.63;3.40;;;23.70;69.60;;;;;;5031639;28;20075;-63
2022/07/13 11:04:04;;;;;;;5.50;3.33;;;23.80;69.60;;;;;;5032525;28;20041;-63
2022/07/13 11:06:30;;;;;;;5.30;3.37;;;23.80;69.60;;;;;;5031411;28;20509;-63
2022/07/13 11:09:16;;;;;;;6.72;3.20;;;23.70;69.60;;;;;;5031866;28;20037;-63
2022/07/13 11:11:45;;;;;;;5.80;3.22;;;23.80;69.60;;;;;;5032485;28;20057;-63
2022/07/13 11:14:35;;;;;;;7.55;3.42;;;23.70;69.30;;;;;;5032726;28;20037;-63
2022/07/13 11:17:17;;;;;;;11.55;4.22;;;23.70;69.30;;;;;;5031766;28;20085;-63
2022/07/13 11:19:53;;;;;;;6.50;3.65;;;23.80;69.30;;;;;;5032425;28;20042;-63
2022/07/13 11:22:22;;;;;;;6.00;3.40;;;23.80;69.30;;;;;;5031552;28;20054;-64
2022/07/13 11:25:15;;;;;;;7.68;3.50;;;23.80;69.20;;;;;;5031440;28;20072;-64
2022/07/13 11:28:10;;;;;;;6.30;3.45;;;23.80;69.10;;;;;;5016532;28;20048;-64
2022/07/13 11:30:36;;;;;;;5.95;3.20;;;23.70;69.00;;;;;;5015822;28;20049;-64
2022/07/13 11:33:02;;;;;;;5.15;3.20;;;23.80;69.10;;;;;;5030833;28;20481;-64
2022/07/13 11:35:28;;;;;;;6.72;3.45;;;23.80;69.00;;;;;;5032111;28;20068;-63
2022/07/13 11:37:53;;;;;;;6.15;3.17;;;23.80;68.90;;;;;;5062373;28;20038;-63
2022/07/13 11:40:26;;;;;;;5.43;3.40;;;23.80;68.80;;;;;;5028983;28;20052;-65
2022/07/13 11:42:53;;;;;;;5.65;3.38;;;23.80;68.80;;;;;;5031279;28;20092;-64
2022/07/13 11:45:27;;;;;;;5.05;2.95;;;23.80;68.70;;;;;;5045897;28;20128;-64
2022/07/13 11:47:56;;;;;;;5.32;3.03;;;23.90;68.70;;;;;;5030820;28;20041;-63
2022/07/13 11:50:22;;;;;;;5.40;2.95;;;23.90;68.70;;;;;;5030157;28;20121;-62
2022/07/13 11:52:48;;;;;;;7.07;2.90;;;23.90;68.60;;;;;;5030321;28;20124;-63
2022/07/13 11:55:13;;;;;;;6.32;3.15;;;23.90;68.50;;;;;;5030947;28;20047;-64
2022/07/13 11:57:39;;;;;;;4.50;2.83;;;23.90;68.50;;;;;;5030928;28;20033;-63
2022/07/13 12:00:06;;;;;;;4.22;2.85;;;23.90;68.40;;;;;;5030688;28;20033;-63
2022/07/13 12:02:32;;;;;;;4.35;2.85;;;23.90;68.30;;;;;;5031192;28;20484;-63
2022/07/13 12:04:57;;;;;;;4.03;2.75;;;23.90;68.20;;;;;;5028717;28;20042;-63
2022/07/13 12:07:24;;;;;;;5.07;2.58;;;24.00;68.30;;;;;;5031466;28;20046;-63
2022/07/13 12:09:54;;;;;;;4.93;2.65;;;24.00;68.20;;;;;;5031527;28;20045;-63
2022/07/13 12:12:24;;;;;;;4.80;2.63;;;24.00;68.10;;;;;;5031160;28;20092;-62
2022/07/13 12:14:54;;;;;;;4.93;2.28;;;24.00;68.00;;;;;;5030179;28;20056;-63
2022/07/13 12:17:20;;;;;;;4.78;2.95;;;24.00;68.00;;;;;;5031412;28;20796;-62
2022/07/13 12:19:45;;;;;;;4.10;2.60;;;24.00;68.00;;;;;;5030212;28;20482;-63
2022/07/13 12:22:11;;;;;;;6.22;2.83;;;24.00;68.00;;;;;;5030321;28;20048;-62
2022/07/13 12:24:47;;;;;;;3.97;2.53;;;24.00;68.00;;;;;;5030936;28;20044;-62
2022/07/13 12:27:26;;;;;;;4.28;2.65;;;24.00;67.90;;;;;;5029790;28;20072;-63
2022/07/13 12:30:07;;;;;;;5.13;2.70;;;24.00;67.90;;;;;;5030611;28;20050;-63
2022/07/13 12:32:33;;;;;;;5.30;2.85;;;24.00;67.90;;;;;;5030629;28;20041;-62
2022/07/13 12:34:59;;;;;;;4.60;2.53;;;24.00;67.70;;;;;;5028979;28;20044;-62
2022/07/13 12:37:37;;;;;;;5.63;2.45;;;24.10;67.60;;;;;;5031399;28;20124;-64
2022/07/13 12:40:05;;;;;;;;;;;24.10;67.50;;;;;;5030631;28;20068;-62
2022/07/13 12:42:32;;;;;;;4.35;2.22;;;24.10;67.40;;;;;;5031492;28;19950;-64
2022/07/13 12:44:58;;;;;;;3.65;2.33;;;24.10;67.40;;;;;;5030958;28;20049;-64
2022/07/13 12:47:26;;;;;;;5.35;2.60;;;24.10;67.30;;;;;;5029421;28;20079;-64
2022/07/13 12:49:51;;;;;;;5.00;2.30;;;24.10;67.10;;;;;;5032513;28;20045;-63
2022/07/13 12:52:21;;;;;;;3.40;1.85;;;24.10;66.90;;;;;;5034468;28;20481;-63
2022/07/13 12:54:49;;;;;;;5.15;1.98;;;24.20;66.90;;;;;;5033952;28;20088;-63